sensor_id;sensor_type;location;lat;lon;timestamp;P1;P2;P0
34240;PMS7003;20503;50.200;19.508;2022-12-07T00:02:13;3;2;1
34240;PMS7003;20503;50.200;19.508;2022-12-07T00:07:24;0;0;0
34240;PMS7003;20503;50.200;19.508;2022-12-07T00:12:35;4;3;1
34240;PMS7003;20503;50.200;19.508;2022-12-07T00:17:46;7;3;1
34240;PMS7003;20503;50.200;19.508;2022-12-07T00:22:56;3;1;0
34240;PMS7003;20503;50.200;19.508;2022-12-07T00:28:07;2;2;2
34240;PMS7003;20503;50.200;19.508;2022-12-07T00:33:18;5;1;0
34240;PMS7003;20503;50.200;19.508;2022-12-07T00:38:30;2;1;1
34240;PMS7003;20503;50.200;19.508;2022-12-07T00:43:41;4;2;1
34240;PMS7003;20503;50.200;19.508;2022-12-07T00:48:51;2;2;1
34240;PMS7003;20503;50.200;19.508;2022-12-07T00:54:01;5;1;0
34240;PMS7003;20503;50.200;19.508;2022-12-07T00:59:13;0;0;0
34240;PMS7003;20503;50.200;19.508;2022-12-07T01:04:23;5;0;0
34240;PMS7003;20503;50.200;19.508;2022-12-07T01:09:34;1;1;0
34240;PMS7003;20503;50.200;19.508;2022-12-07T01:14:44;3;0;0
34240;PMS7003;20503;50.200;19.508;2022-12-07T01:19:55;1;0;0
34240;PMS7003;20503;50.200;19.508;2022-12-07T01:25:06;1;0;0
34240;PMS7003;20503;50.200;19.508;2022-12-07T01:30:16;0;0;0
34240;PMS7003;20503;50.200;19.508;2022-12-07T01:35:27;0;0;0
34240;PMS7003;20503;50.200;19.508;2022-12-07T01:40:38;0;0;0
34240;PMS7003;20503;50.200;19.508;2022-12-07T01:45:49;2;0;0
34240;PMS7003;20503;50.200;19.508;2022-12-07T01:51:01;1;0;0
34240;PMS7003;20503;50.200;19.508;2022-12-07T01:56:11;1;1;0
34240;PMS7003;20503;50.200;19.508;2022-12-07T02:01:21;3;1;0
34240;PMS7003;20503;50.200;19.508;2022-12-07T02:06:33;1;0;0
34240;PMS7003;20503;50.200;19.508;2022-12-07T02:11:43;2;1;0
34240;PMS7003;20503;50.200;19.508;2022-12-07T02:16:57;3;1;1
34240;PMS7003;20503;50.200;19.508;2022-12-07T02:22:16;0;0;0
34240;PMS7003;20503;50.200;19.508;2022-12-07T02:32:39;1;0;0
34240;PMS7003;20503;50.200;19.508;2022-12-07T02:37:51;2;1;1
34240;PMS7003;20503;50.200;19.508;2022-12-07T02:43:20;3;1;0
34240;PMS7003;20503;50.200;19.508;2022-12-07T02:48:13;0;0;0
34240;PMS7003;20503;50.200;19.508;2022-12-07T03:03:48;0;0;0
34240;PMS7003;20503;50.200;19.508;2022-12-07T03:09:04;0;0;0
34240;PMS7003;20503;50.200;19.508;2022-12-07T03:14:18;1;1;0
34240;PMS7003;20503;50.200;19.508;2022-12-07T03:19:22;1;1;1
34240;PMS7003;20503;50.200;19.508;2022-12-07T03:24:28;3;1;1
34240;PMS7003;20503;50.200;19.508;2022-12-07T03:29:35;2;2;0
34240;PMS7003;20503;50.200;19.508;2022-12-07T03:45:04;2;1;0
34240;PMS7003;20503;50.200;19.508;2022-12-07T03:50:13;1;1;0
34240;PMS7003;20503;50.200;19.508;2022-12-07T03:55:30;1;1;0
34240;PMS7003;20503;50.200;19.508;2022-12-07T04:00:35;1;1;1
34240;PMS7003;20503;50.200;19.508;2022-12-07T04:05:42;1;0;0
34240;PMS7003;20503;50.200;19.508;2022-12-07T04:10:50;1;1;0
34240;PMS7003;20503;50.200;19.508;2022-12-07T04:16:01;2;2;1
34240;PMS7003;20503;50.200;19.508;2022-12-07T04:21:12;2;1;1
34240;PMS7003;20503;50.200;19.508;2022-12-07T04:26:23;1;1;0
34240;PMS7003;20503;50.200;19.508;2022-12-07T04:31:34;8;2;1
34240;PMS7003;20503;50.200;19.508;2022-12-07T04:36:45;1;1;0
34240;PMS7003;20503;50.200;19.508;2022-12-07T04:41:55;4;2;1
34240;PMS7003;20503;50.200;19.508;2022-12-07T04:47:06;1;1;0
34240;PMS7003;20503;50.200;19.508;2022-12-07T04:52:17;2;0;0
34240;PMS7003;20503;50.200;19.508;2022-12-07T04:57:28;2;2;0
34240;PMS7003;20503;50.200;19.508;2022-12-07T05:02:39;1;1;1
34240;PMS7003;20503;50.200;19.508;2022-12-07T05:07:49;2;1;0
34240;PMS7003;20503;50.200;19.508;2022-12-07T05:13:00;6;3;2
34240;PMS7003;20503;50.200;19.508;2022-12-07T05:18:11;2;2;1
34240;PMS7003;20503;50.200;19.508;2022-12-07T05:23:21;2;2;1
34240;PMS7003;20503;50.200;19.508;2022-12-07T05:28:33;6;3;2
34240;PMS7003;20503;50.200;19.508;2022-12-07T05:33:43;5;2;2
34240;PMS7003;20503;50.200;19.508;2022-12-07T05:38:54;2;1;1
34240;PMS7003;20503;50.200;19.508;2022-12-07T05:44:04;4;2;1
34240;PMS7003;20503;50.200;19.508;2022-12-07T05:49:15;3;2;0
34240;PMS7003;20503;50.200;19.508;2022-12-07T05:54:26;3;2;1
34240;PMS7003;20503;50.200;19.508;2022-12-07T05:59:37;7;5;3
34240;PMS7003;20503;50.200;19.508;2022-12-07T06:04:47;6;5;3
34240;PMS7003;20503;50.200;19.508;2022-12-07T06:09:58;8;5;3
34240;PMS7003;20503;50.200;19.508;2022-12-07T06:15:09;17;11;7
34240;PMS7003;20503;50.200;19.508;2022-12-07T06:20:20;6;4;3
34240;PMS7003;20503;50.200;19.508;2022-12-07T06:25:32;3;3;2
34240;PMS7003;20503;50.200;19.508;2022-12-07T06:30:43;2;2;1
34240;PMS7003;20503;50.200;19.508;2022-12-07T06:35:52;2;2;1
34240;PMS7003;20503;50.200;19.508;2022-12-07T06:41:03;4;3;2
34240;PMS7003;20503;50.200;19.508;2022-12-07T06:46:14;8;6;4
34240;PMS7003;20503;50.200;19.508;2022-12-07T06:51:26;6;4;3
34240;PMS7003;20503;50.200;19.508;2022-12-07T06:56:36;7;4;3
34240;PMS7003;20503;50.200;19.508;2022-12-07T07:01:47;6;4;3
34240;PMS7003;20503;50.200;19.508;2022-12-07T07:06:58;3;2;1
34240;PMS7003;20503;50.200;19.508;2022-12-07T07:12:08;3;2;2
34240;PMS7003;20503;50.200;19.508;2022-12-07T07:17:18;5;3;2
34240;PMS7003;20503;50.200;19.508;2022-12-07T07:22:29;3;1;1
34240;PMS7003;20503;50.200;19.508;2022-12-07T07:27:40;3;3;2
34240;PMS7003;20503;50.200;19.508;2022-12-07T07:32:51;4;4;2
34240;PMS7003;20503;50.200;19.508;2022-12-07T07:38:02;8;5;3
34240;PMS7003;20503;50.200;19.508;2022-12-07T07:43:12;7;4;2
34240;PMS7003;20503;50.200;19.508;2022-12-07T07:48:23;5;1;0
34240;PMS7003;20503;50.200;19.508;2022-12-07T07:53:35;2;1;1
34240;PMS7003;20503;50.200;19.508;2022-12-07T07:58:45;8;2;2
34240;PMS7003;20503;50.200;19.508;2022-12-07T08:03:55;3;2;1
34240;PMS7003;20503;50.200;19.508;2022-12-07T08:09:06;5;2;1
34240;PMS7003;20503;50.200;19.508;2022-12-07T08:14:17;2;0;0
34240;PMS7003;20503;50.200;19.508;2022-12-07T08:19:28;6;1;1
34240;PMS7003;20503;50.200;19.508;2022-12-07T08:24:39;3;1;1
34240;PMS7003;20503;50.200;19.508;2022-12-07T08:29:49;5;2;1
34240;PMS7003;20503;50.200;19.508;2022-12-07T08:35:00;4;3;1
34240;PMS7003;20503;50.200;19.508;2022-12-07T08:40:11;5;2;1
34240;PMS7003;20503;50.200;19.508;2022-12-07T08:45:22;2;1;1
34240;PMS7003;20503;50.200;19.508;2022-12-07T08:50:32;3;2;2
34240;PMS7003;20503;50.200;19.508;2022-12-07T08:55:44;3;3;2
34240;PMS7003;20503;50.200;19.508;2022-12-07T09:00:54;3;2;2
34240;PMS7003;20503;50.200;19.508;2022-12-07T09:06:05;4;3;2
34240;PMS7003;20503;50.200;19.508;2022-12-07T09:11:15;5;2;1
34240;PMS7003;20503;50.200;19.508;2022-12-07T09:16:26;5;2;1
34240;PMS7003;20503;50.200;19.508;2022-12-07T09:21:37;4;3;1
34240;PMS7003;20503;50.200;19.508;2022-12-07T09:26:49;4;3;2
34240;PMS7003;20503;50.200;19.508;2022-12-07T09:31:58;7;3;2
34240;PMS7003;20503;50.200;19.508;2022-12-07T09:37:09;3;2;1
34240;PMS7003;20503;50.200;19.508;2022-12-07T09:47:31;6;2;2
34240;PMS7003;20503;50.200;19.508;2022-12-07T09:52:42;3;2;1
34240;PMS7003;20503;50.200;19.508;2022-12-07T09:57:52;6;3;1
34240;PMS7003;20503;50.200;19.508;2022-12-07T10:03:03;1;1;0
34240;PMS7003;20503;50.200;19.508;2022-12-07T10:08:14;3;1;1
34240;PMS7003;20503;50.200;19.508;2022-12-07T10:18:38;15;8;4
34240;PMS7003;20503;50.200;19.508;2022-12-07T10:29:23;7;4;3
34240;PMS7003;20503;50.200;19.508;2022-12-07T10:39:26;10;6;4
34240;PMS7003;20503;50.200;19.508;2022-12-07T10:44:30;7;4;3
34240;PMS7003;20503;50.200;19.508;2022-12-07T11:21:06;4;4;3
34240;PMS7003;20503;50.200;19.508;2022-12-07T11:36:47;7;5;3
34240;PMS7003;20503;50.200;19.508;2022-12-07T11:41:54;8;3;1
34240;PMS7003;20503;50.200;19.508;2022-12-07T11:52:32;11;7;4
34240;PMS7003;20503;50.200;19.508;2022-12-07T12:03:01;10;5;3
34240;PMS7003;20503;50.200;19.508;2022-12-07T12:08:19;7;5;3
34240;PMS7003;20503;50.200;19.508;2022-12-07T12:18:37;12;5;4
34240;PMS7003;20503;50.200;19.508;2022-12-07T12:23:47;11;4;3
34240;PMS7003;20503;50.200;19.508;2022-12-07T12:28:56;7;3;2
34240;PMS7003;20503;50.200;19.508;2022-12-07T12:34:04;5;3;2
34240;PMS7003;20503;50.200;19.508;2022-12-07T12:39:18;7;7;5
34240;PMS7003;20503;50.200;19.508;2022-12-07T12:49:36;11;3;2
34240;PMS7003;20503;50.200;19.508;2022-12-07T13:20:45;5;4;3
34240;PMS7003;20503;50.200;19.508;2022-12-07T13:31:03;6;3;1
34240;PMS7003;20503;50.200;19.508;2022-12-07T13:40:42;8;4;3
34240;PMS7003;20503;50.200;19.508;2022-12-07T13:51:19;8;7;5
34240;PMS7003;20503;50.200;19.508;2022-12-07T13:56:14;9;4;3
34240;PMS7003;20503;50.200;19.508;2022-12-07T14:01:25;6;4;2
34240;PMS7003;20503;50.200;19.508;2022-12-07T14:06:36;7;6;3
34240;PMS7003;20503;50.200;19.508;2022-12-07T14:11:47;9;6;3
34240;PMS7003;20503;50.200;19.508;2022-12-07T14:17:19;6;3;1
34240;PMS7003;20503;50.200;19.508;2022-12-07T14:27:30;6;4;2
34240;PMS7003;20503;50.200;19.508;2022-12-07T14:32:35;6;2;0
34240;PMS7003;20503;50.200;19.508;2022-12-07T14:37:41;9;6;4
34240;PMS7003;20503;50.200;19.508;2022-12-07T14:42:53;9;7;5
34240;PMS7003;20503;50.200;19.508;2022-12-07T14:48:02;7;6;4
34240;PMS7003;20503;50.200;19.508;2022-12-07T14:53:14;10;7;6
34240;PMS7003;20503;50.200;19.508;2022-12-07T14:58:23;7;5;4
34240;PMS7003;20503;50.200;19.508;2022-12-07T15:03:37;7;5;3
34240;PMS7003;20503;50.200;19.508;2022-12-07T15:08:45;5;5;3
34240;PMS7003;20503;50.200;19.508;2022-12-07T15:13:57;14;8;4
34240;PMS7003;20503;50.200;19.508;2022-12-07T15:19:12;14;9;5
34240;PMS7003;20503;50.200;19.508;2022-12-07T15:24:17;11;8;4
34240;PMS7003;20503;50.200;19.508;2022-12-07T15:29:29;3;2;0
34240;PMS7003;20503;50.200;19.508;2022-12-07T15:34:39;11;5;3
34240;PMS7003;20503;50.200;19.508;2022-12-07T15:39:51;14;8;5
34240;PMS7003;20503;50.200;19.508;2022-12-07T15:45:00;13;9;6
34240;PMS7003;20503;50.200;19.508;2022-12-07T15:50:12;9;8;6
34240;PMS7003;20503;50.200;19.508;2022-12-07T15:55:22;8;7;4
34240;PMS7003;20503;50.200;19.508;2022-12-07T16:00:33;9;5;2
34240;PMS7003;20503;50.200;19.508;2022-12-07T16:10:54;11;7;4
34240;PMS7003;20503;50.200;19.508;2022-12-07T16:16:06;6;4;2
34240;PMS7003;20503;50.200;19.508;2022-12-07T16:21:17;9;6;3
34240;PMS7003;20503;50.200;19.508;2022-12-07T16:26:27;5;5;3
34240;PMS7003;20503;50.200;19.508;2022-12-07T16:31:38;4;2;0
34240;PMS7003;20503;50.200;19.508;2022-12-07T16:36:48;5;4;2
34240;PMS7003;20503;50.200;19.508;2022-12-07T16:41:59;8;5;3
34240;PMS7003;20503;50.200;19.508;2022-12-07T16:47:10;9;7;4
34240;PMS7003;20503;50.200;19.508;2022-12-07T16:52:21;9;7;5
34240;PMS7003;20503;50.200;19.508;2022-12-07T16:57:31;8;7;4
34240;PMS7003;20503;50.200;19.508;2022-12-07T17:02:43;8;6;4
34240;PMS7003;20503;50.200;19.508;2022-12-07T17:07:53;6;5;3
34240;PMS7003;20503;50.200;19.508;2022-12-07T17:13:04;9;5;3
34240;PMS7003;20503;50.200;19.508;2022-12-07T17:18:17;6;4;2
34240;PMS7003;20503;50.200;19.508;2022-12-07T17:23:25;10;6;3
34240;PMS7003;20503;50.200;19.508;2022-12-07T17:28:36;5;4;2
34240;PMS7003;20503;50.200;19.508;2022-12-07T17:33:47;11;3;3
34240;PMS7003;20503;50.200;19.508;2022-12-07T17:38:58;6;3;2
34240;PMS7003;20503;50.200;19.508;2022-12-07T17:44:12;8;5;3
34240;PMS7003;20503;50.200;19.508;2022-12-07T17:49:20;6;5;2
34240;PMS7003;20503;50.200;19.508;2022-12-07T17:54:30;3;1;0
34240;PMS7003;20503;50.200;19.508;2022-12-07T17:59:41;7;3;3
34240;PMS7003;20503;50.200;19.508;2022-12-07T18:04:51;9;5;3
34240;PMS7003;20503;50.200;19.508;2022-12-07T18:10:03;10;7;4
34240;PMS7003;20503;50.200;19.508;2022-12-07T18:15:13;11;7;4
34240;PMS7003;20503;50.200;19.508;2022-12-07T18:20:24;14;8;4
34240;PMS7003;20503;50.200;19.508;2022-12-07T18:25:34;7;5;3
34240;PMS7003;20503;50.200;19.508;2022-12-07T18:30:47;12;7;5
34240;PMS7003;20503;50.200;19.508;2022-12-07T18:35:57;12;10;6
34240;PMS7003;20503;50.200;19.508;2022-12-07T18:41:07;8;6;4
34240;PMS7003;20503;50.200;19.508;2022-12-07T18:46:18;10;10;6
34240;PMS7003;20503;50.200;19.508;2022-12-07T18:51:28;19;14;9
34240;PMS7003;20503;50.200;19.508;2022-12-07T18:56:41;17;8;6
34240;PMS7003;20503;50.200;19.508;2022-12-07T19:01:51;13;7;5
34240;PMS7003;20503;50.200;19.508;2022-12-07T19:07:01;13;11;8
34240;PMS7003;20503;50.200;19.508;2022-12-07T19:12:12;7;6;4
34240;PMS7003;20503;50.200;19.508;2022-12-07T19:17:22;9;8;5
34240;PMS7003;20503;50.200;19.508;2022-12-07T19:22:34;9;5;4
34240;PMS7003;20503;50.200;19.508;2022-12-07T19:27:45;14;5;4
34240;PMS7003;20503;50.200;19.508;2022-12-07T19:32:55;16;6;4
34240;PMS7003;20503;50.200;19.508;2022-12-07T19:38:07;12;3;2
34240;PMS7003;20503;50.200;19.508;2022-12-07T19:43:17;12;9;5
34240;PMS7003;20503;50.200;19.508;2022-12-07T19:48:27;10;4;2
34240;PMS7003;20503;50.200;19.508;2022-12-07T19:53:38;9;5;3
34240;PMS7003;20503;50.200;19.508;2022-12-07T19:58:49;7;7;4
34240;PMS7003;20503;50.200;19.508;2022-12-07T20:03:59;4;0;0
34240;PMS7003;20503;50.200;19.508;2022-12-07T20:09:10;6;5;4
34240;PMS7003;20503;50.200;19.508;2022-12-07T20:14:22;6;4;3
34240;PMS7003;20503;50.200;19.508;2022-12-07T20:19:34;6;5;3
34240;PMS7003;20503;50.200;19.508;2022-12-07T20:24:42;8;3;2
34240;PMS7003;20503;50.200;19.508;2022-12-07T20:29:53;3;2;1
34240;PMS7003;20503;50.200;19.508;2022-12-07T20:35:04;5;2;1
34240;PMS7003;20503;50.200;19.508;2022-12-07T20:40:15;6;6;2
34240;PMS7003;20503;50.200;19.508;2022-12-07T20:45:26;4;1;1
34240;PMS7003;20503;50.200;19.508;2022-12-07T20:50:36;10;7;3
34240;PMS7003;20503;50.200;19.508;2022-12-07T20:55:47;5;3;2
34240;PMS7003;20503;50.200;19.508;2022-12-07T21:01:01;8;3;2
34240;PMS7003;20503;50.200;19.508;2022-12-07T21:06:11;3;2;1
34240;PMS7003;20503;50.200;19.508;2022-12-07T21:11:21;2;1;1
34240;PMS7003;20503;50.200;19.508;2022-12-07T21:16:30;3;1;0
34240;PMS7003;20503;50.200;19.508;2022-12-07T21:21:41;5;4;2
34240;PMS7003;20503;50.200;19.508;2022-12-07T21:26:52;6;1;1
34240;PMS7003;20503;50.200;19.508;2022-12-07T21:32:03;6;5;3
34240;PMS7003;20503;50.200;19.508;2022-12-07T21:37:13;5;3;2
34240;PMS7003;20503;50.200;19.508;2022-12-07T21:42:24;5;3;2
34240;PMS7003;20503;50.200;19.508;2022-12-07T21:47:35;6;3;1
34240;PMS7003;20503;50.200;19.508;2022-12-07T21:52:46;8;3;2
34240;PMS7003;20503;50.200;19.508;2022-12-07T21:57:56;10;4;3
34240;PMS7003;20503;50.200;19.508;2022-12-07T22:03:07;5;3;1
34240;PMS7003;20503;50.200;19.508;2022-12-07T22:08:18;7;4;2
34240;PMS7003;20503;50.200;19.508;2022-12-07T22:13:30;6;3;2
34240;PMS7003;20503;50.200;19.508;2022-12-07T22:18:42;4;3;2
34240;PMS7003;20503;50.200;19.508;2022-12-07T22:23:50;2;2;1
34240;PMS7003;20503;50.200;19.508;2022-12-07T22:29:01;5;3;2
34240;PMS7003;20503;50.200;19.508;2022-12-07T22:34:13;6;3;2
34240;PMS7003;20503;50.200;19.508;2022-12-07T22:39:23;5;3;2
34240;PMS7003;20503;50.200;19.508;2022-12-07T22:44:33;3;3;2
34240;PMS7003;20503;50.200;19.508;2022-12-07T22:49:44;7;3;2
34240;PMS7003;20503;50.200;19.508;2022-12-07T22:54:56;7;3;2
34240;PMS7003;20503;50.200;19.508;2022-12-07T23:00:07;5;3;1
34240;PMS7003;20503;50.200;19.508;2022-12-07T23:05:17;4;2;1
34240;PMS7003;20503;50.200;19.508;2022-12-07T23:10:27;4;2;1
34240;PMS7003;20503;50.200;19.508;2022-12-07T23:15:39;5;2;1
34240;PMS7003;20503;50.200;19.508;2022-12-07T23:20:49;4;3;2
34240;PMS7003;20503;50.200;19.508;2022-12-07T23:31:11;4;1;0
34240;PMS7003;20503;50.200;19.508;2022-12-07T23:36:22;2;2;1
34240;PMS7003;20503;50.200;19.508;2022-12-07T23:41:32;0;0;0
34240;PMS7003;20503;50.200;19.508;2022-12-07T23:46:43;2;1;1
34240;PMS7003;20503;50.200;19.508;2022-12-07T23:51:53;1;1;1
34240;PMS7003;20503;50.200;19.508;2022-12-07T23:57:04;9;2;1
